South Weymouth, Massachusetts
Current Conditions -  °F | °C
As of 2:53 PM on Sunday 25 Jan 2015 (Local Time) from KOWD Reporting Station
Clear Clear  
Wind Chill: 26°   Ceiling: Unl
Heat Index: 35°   Visibility: 10mi
Dew Point: 12°   Wind: 14mph
Humidity: 39%   Direction: 260°W
Pressure: 29.7"   Gusts: NA
Location:  42.1666°N, 70.9521°W
Report Text: KOWD 251953Z 26012KT 10SM CLR 02/M11 A2970 RMK AO2 SLP059 T00171111
Loading
Personal Weather Stations






























Interactive Weather Map New forecast layout! Learn more

10-Day Weather Forecast

Advertisements
Track Severe Weather on mobile